createdAt,value
2022-11-05T00:00:14.493Z,89
2022-11-05T00:01:14.397Z,89
2022-11-05T00:02:14.787Z,89
2022-11-05T00:03:15.459Z,89
2022-11-05T00:04:14.702Z,89
2022-11-05T00:05:14.962Z,89
2022-11-05T00:06:14.422Z,89
2022-11-05T00:07:14.857Z,89
2022-11-05T00:08:14.142Z,89
2022-11-05T00:09:14.607Z,89
2022-11-05T00:10:14.952Z,89
2022-11-05T00:11:20.644Z,89
2022-11-05T00:12:14.647Z,89
2022-11-05T00:13:16.013Z,89
2022-11-05T00:14:14.530Z,89
2022-11-05T00:19:14.523Z,89
2022-11-05T00:20:14.555Z,89
2022-11-05T00:21:15.027Z,89
2022-11-05T00:22:14.356Z,89
2022-11-05T00:23:15.825Z,89
2022-11-05T00:24:14.112Z,89
2022-11-05T00:25:14.469Z,89
2022-11-05T00:26:14.905Z,89
2022-11-05T00:27:14.299Z,89
2022-11-05T00:28:14.655Z,89
2022-11-05T00:29:15.099Z,89
2022-11-05T00:32:14.415Z,89
2022-11-05T00:33:15.826Z,89
2022-11-05T00:34:14.215Z,89
2022-11-05T00:35:14.441Z,89
2022-11-05T00:36:14.755Z,89
2022-11-05T00:37:14.103Z,89
2022-11-05T00:38:14.459Z,89
2022-11-05T00:39:14.807Z,89
2022-11-05T00:40:14.173Z,89
2022-11-05T00:41:14.616Z,89
2022-11-05T00:42:15.058Z,89
2022-11-05T00:43:15.574Z,89
2022-11-05T00:44:14.754Z,89
2022-11-05T00:45:15.067Z,89
2022-11-05T00:46:14.378Z,89
2022-11-05T00:47:14.656Z,89
2022-11-05T00:48:15.066Z,89
2022-11-05T00:49:14.476Z,89
2022-11-05T00:50:15.193Z,89
2022-11-05T00:53:15.178Z,89
2022-11-05T00:54:14.694Z,89
2022-11-05T00:55:14.307Z,89
2022-11-05T00:56:14.668Z,89
2022-11-05T00:57:14.441Z,89
2022-11-05T00:58:15.001Z,89
2022-11-05T00:59:14.338Z,89
2022-11-05T01:00:14.243Z,89
2022-11-05T01:03:16.425Z,89
2022-11-05T01:04:14.258Z,89
2022-11-05T01:05:14.720Z,89
2022-11-05T01:06:14.295Z,89
2022-11-05T01:07:14.613Z,89
2022-11-05T01:08:14.897Z,89
2022-11-05T01:09:14.330Z,89
2022-11-05T01:10:14.683Z,89
2022-11-05T01:11:14.212Z,89
2022-11-05T01:12:14.414Z,89
2022-11-05T01:13:20.348Z,89
2022-11-05T01:14:14.212Z,89
2022-11-05T01:17:14.728Z,89
2022-11-05T01:18:14.282Z,89
2022-11-05T01:19:14.603Z,89
2022-11-05T01:20:14.991Z,89
2022-11-05T01:21:14.447Z,89
2022-11-05T01:22:14.812Z,89
2022-11-05T01:23:21.323Z,89
2022-11-05T01:24:14.425Z,89
2022-11-05T01:25:14.843Z,89
2022-11-05T01:26:14.181Z,89
2022-11-05T01:27:14.525Z,89
2022-11-05T01:28:14.674Z,89
2022-11-05T01:29:15.397Z,89
2022-11-05T01:30:14.378Z,89
2022-11-05T01:31:14.839Z,89
2022-11-05T01:32:14.172Z,89
2022-11-05T01:33:16.066Z,89
2022-11-05T01:34:15.065Z,89
2022-11-05T01:35:14.460Z,89
2022-11-05T01:36:14.805Z,89
2022-11-05T01:37:14.991Z,89
2022-11-05T01:38:14.443Z,89
2022-11-05T01:39:14.736Z,89
2022-11-05T01:40:14.184Z,89
2022-11-05T01:41:14.496Z,89
2022-11-05T01:42:14.974Z,89
2022-11-05T01:43:15.248Z,89
2022-11-05T01:44:14.634Z,89
2022-11-05T01:45:15.102Z,89
2022-11-05T01:46:14.429Z,89
2022-11-05T01:47:14.859Z,89
2022-11-05T01:48:14.233Z,89
2022-11-05T01:49:14.537Z,89
2022-11-05T01:50:14.912Z,89
2022-11-05T01:51:14.337Z,89
2022-11-05T01:52:14.670Z,89
2022-11-05T01:53:16.280Z,89
2022-11-05T01:54:14.640Z,89
2022-11-05T01:55:14.750Z,89
2022-11-05T01:56:14.076Z,89
2022-11-05T01:57:14.498Z,89
2022-11-05T01:58:14.828Z,89
2022-11-05T01:59:14.208Z,89
2022-11-05T02:02:14.939Z,89
2022-11-05T02:03:15.794Z,89
2022-11-05T02:04:14.952Z,89
2022-11-05T02:05:14.456Z,89
2022-11-05T02:06:14.847Z,89
2022-11-05T02:07:15.123Z,89
2022-11-05T02:08:14.475Z,89
2022-11-05T02:09:14.854Z,89
2022-11-05T02:10:14.314Z,89
2022-11-05T02:13:15.217Z,89
2022-11-05T02:14:14.604Z,89
2022-11-05T02:15:15.016Z,89
2022-11-05T02:16:14.427Z,89
2022-11-05T02:17:14.798Z,89
2022-11-05T02:18:14.158Z,89
2022-11-05T02:19:14.633Z,89
2022-11-05T02:20:14.188Z,89
2022-11-05T02:21:14.842Z,89
2022-11-05T02:22:14.207Z,89
2022-11-05T02:23:15.908Z,89
2022-11-05T02:24:15.013Z,89
2022-11-05T02:25:14.390Z,89
2022-11-05T02:26:14.928Z,89
2022-11-05T02:27:15.117Z,90
2022-11-05T02:28:14.437Z,90
2022-11-05T02:29:14.837Z,90
2022-11-05T02:30:14.164Z,90
2022-11-05T02:31:14.642Z,90
2022-11-05T02:32:14.874Z,90
2022-11-05T02:33:15.403Z,90
2022-11-05T02:34:14.522Z,90
2022-11-05T02:39:14.308Z,90
2022-11-05T02:40:14.582Z,90
2022-11-05T02:41:14.888Z,90
2022-11-05T02:42:14.203Z,90
2022-11-05T02:43:15.488Z,90
2022-11-05T02:44:14.913Z,90
2022-11-05T02:45:14.321Z,90
2022-11-05T02:46:14.716Z,90
2022-11-05T02:47:22.138Z,90
2022-11-05T02:48:14.495Z,90
2022-11-05T02:49:14.865Z,90
2022-11-05T02:50:14.203Z,90
2022-11-05T02:51:14.636Z,90
2022-11-05T02:52:14.821Z,90
2022-11-05T02:53:15.198Z,90
2022-11-05T02:54:14.664Z,90
2022-11-05T02:55:15.006Z,90
2022-11-05T02:56:14.398Z,90
2022-11-05T02:57:14.693Z,90
2022-11-05T03:00:14.754Z,90
2022-11-05T03:01:14.256Z,90
2022-11-05T03:02:15.124Z,90
2022-11-05T03:03:15.823Z,90
2022-11-05T03:04:14.189Z,90
2022-11-05T03:05:14.578Z,90
2022-11-05T03:06:15.042Z,90
2022-11-05T03:07:14.320Z,90
2022-11-05T03:08:14.751Z,90
2022-11-05T03:09:15.101Z,90
2022-11-05T03:12:14.145Z,90
2022-11-05T03:13:15.599Z,90
2022-11-05T03:14:14.990Z,90
2022-11-05T03:15:14.355Z,90
2022-11-05T03:16:14.701Z,90
2022-11-05T03:17:14.981Z,90
2022-11-05T03:18:14.395Z,90
2022-11-05T03:19:14.838Z,90
2022-11-05T03:20:15.175Z,90
2022-11-05T03:21:14.482Z,90
2022-11-05T03:24:14.482Z,90
2022-11-05T03:25:14.727Z,90
2022-11-05T03:26:15.148Z,90
2022-11-05T03:27:14.431Z,90
2022-11-05T03:28:14.806Z,90
2022-11-05T03:29:14.232Z,91
2022-11-05T03:32:14.302Z,90
2022-11-05T03:33:15.981Z,90
2022-11-05T03:34:14.890Z,90
2022-11-05T03:35:14.358Z,90
2022-11-05T03:36:14.643Z,90
2022-11-05T03:37:14.985Z,91
2022-11-05T03:38:14.287Z,91
2022-11-05T03:39:14.672Z,91
2022-11-05T03:40:15.139Z,91
2022-11-05T03:41:14.494Z,90
2022-11-05T03:42:14.744Z,90
2022-11-05T03:43:15.419Z,90
2022-11-05T03:44:14.660Z,90
2022-11-05T03:45:14.945Z,90
2022-11-05T03:46:14.274Z,91
2022-11-05T03:47:14.653Z,91
2022-11-05T03:48:15.270Z,91
2022-11-05T03:49:14.440Z,91
2022-11-05T03:50:14.811Z,91
2022-11-05T03:51:14.229Z,91
2022-11-05T03:52:14.536Z,91
2022-11-05T03:53:15.989Z,90
2022-11-05T03:54:14.253Z,91
2022-11-05T03:55:14.489Z,91
2022-11-05T03:56:14.939Z,90
2022-11-05T03:57:14.340Z,90
2022-11-05T03:58:14.675Z,90
2022-11-05T03:59:15.113Z,90
2022-11-05T04:00:14.497Z,91
2022-11-05T04:01:14.854Z,91
2022-11-05T04:02:14.868Z,91
2022-11-05T04:03:15.464Z,90
2022-11-05T04:04:14.846Z,90
2022-11-05T04:05:14.196Z,91
2022-11-05T04:06:16.153Z,91
2022-11-05T04:07:14.912Z,91
2022-11-05T04:08:20.349Z,91
2022-11-05T04:09:14.726Z,91
2022-11-05T04:10:15.071Z,91
2022-11-05T04:11:14.403Z,91
2022-11-05T04:12:14.695Z,91
2022-11-05T04:13:16.278Z,91
2022-11-05T04:14:14.430Z,91
2022-11-05T04:15:14.732Z,90
2022-11-05T04:16:15.013Z,90
2022-11-05T04:17:14.781Z,91
2022-11-05T04:18:15.228Z,91
2022-11-05T04:19:14.463Z,91
2022-11-05T04:20:14.876Z,91
2022-11-05T04:21:14.341Z,91
2022-11-05T04:22:14.634Z,91
2022-11-05T04:23:15.735Z,91
2022-11-05T04:24:14.303Z,91
2022-11-05T04:25:14.597Z,91
2022-11-05T04:26:15.035Z,91
2022-11-05T04:27:14.315Z,91
2022-11-05T04:28:14.637Z,91
2022-11-05T04:29:15.029Z,91
2022-11-05T04:30:14.348Z,91
2022-11-05T04:31:14.817Z,91
2022-11-05T04:32:14.211Z,91
2022-11-05T04:33:15.823Z,91
2022-11-05T04:34:14.995Z,91
2022-11-05T04:35:14.236Z,91
2022-11-05T04:38:14.246Z,91
2022-11-05T04:39:14.701Z,91
2022-11-05T04:40:15.064Z,91
2022-11-05T04:41:14.362Z,91
2022-11-05T04:42:14.733Z,91
2022-11-05T04:45:14.844Z,91
2022-11-05T04:46:14.627Z,91
2022-11-05T04:47:14.394Z,91
2022-11-05T04:50:14.532Z,91
2022-11-05T04:51:14.728Z,91
2022-11-05T04:52:14.816Z,91
2022-11-05T04:53:16.008Z,91
2022-11-05T04:54:14.142Z,91
2022-11-05T04:55:14.603Z,91
2022-11-05T04:58:14.849Z,91
2022-11-05T04:59:14.268Z,91
2022-11-05T05:00:14.795Z,91
2022-11-05T05:01:15.645Z,91
2022-11-05T05:02:15.037Z,91
2022-11-05T05:03:16.395Z,91
2022-11-05T05:04:14.458Z,91
2022-11-05T05:05:14.858Z,91
2022-11-05T05:06:15.232Z,91
2022-11-05T05:07:14.583Z,91
2022-11-05T05:08:14.921Z,91
2022-11-05T05:09:14.196Z,91
2022-11-05T05:10:14.567Z,91
2022-11-05T05:11:14.989Z,91
2022-11-05T05:12:14.363Z,91
2022-11-05T05:13:15.745Z,91
2022-11-05T05:14:15.025Z,91
2022-11-05T05:15:14.444Z,91
2022-11-05T05:16:14.771Z,91
2022-11-05T05:17:14.354Z,91
2022-11-05T05:18:14.565Z,91
2022-11-05T05:19:14.831Z,91
2022-11-05T05:20:14.291Z,91
2022-11-05T05:21:14.696Z,91
2022-11-05T05:22:15.073Z,91
2022-11-05T05:23:15.591Z,91
2022-11-05T05:24:14.801Z,91
2022-11-05T05:25:15.199Z,91
2022-11-05T05:26:14.495Z,91
2022-11-05T05:27:14.777Z,91
2022-11-05T05:28:14.221Z,91
2022-11-05T05:29:14.648Z,91
2022-11-05T05:30:15.109Z,91
2022-11-05T05:33:15.334Z,91
2022-11-05T05:34:14.679Z,91
2022-11-05T05:35:15.084Z,91
2022-11-05T05:36:17.717Z,91
2022-11-05T05:37:14.765Z,91
2022-11-05T05:38:14.422Z,91
2022-11-05T05:39:14.527Z,91
2022-11-05T05:40:14.872Z,91
2022-11-05T05:41:14.222Z,91
2022-11-05T05:42:14.592Z,91
2022-11-05T05:43:15.846Z,91
2022-11-05T05:44:14.255Z,91
2022-11-05T05:45:14.715Z,91
2022-11-05T05:46:15.089Z,91
2022-11-05T05:47:14.445Z,91
2022-11-05T05:48:14.746Z,91
2022-11-05T05:49:18.684Z,91
2022-11-05T05:50:14.419Z,91
2022-11-05T05:51:14.684Z,91
2022-11-05T05:52:15.145Z,91
2022-11-05T05:53:15.545Z,91
2022-11-05T05:54:14.968Z,91
2022-11-05T05:55:14.264Z,91
2022-11-05T05:56:14.617Z,91
2022-11-05T05:57:14.984Z,91
2022-11-05T05:58:14.301Z,91
2022-11-05T05:59:14.626Z,91
2022-11-05T06:00:14.963Z,91
2022-11-05T06:01:21.714Z,91
2022-11-05T06:02:15.243Z,91
2022-11-05T06:03:15.455Z,91
2022-11-05T06:04:14.938Z,91
2022-11-05T06:05:14.290Z,91
2022-11-05T06:06:14.642Z,91
2022-11-05T06:07:15.037Z,91
2022-11-05T06:08:14.458Z,91
2022-11-05T06:09:14.905Z,91
2022-11-05T06:10:14.613Z,91
2022-11-05T06:11:15.037Z,91
2022-11-05T06:12:14.101Z,91
2022-11-05T06:13:15.465Z,91
2022-11-05T06:16:14.904Z,91
2022-11-05T06:17:14.305Z,91
2022-11-05T06:18:14.656Z,91
2022-11-05T06:19:14.971Z,91
2022-11-05T06:20:14.333Z,91
2022-11-05T06:21:14.780Z,91
2022-11-05T06:22:14.176Z,91
2022-11-05T06:23:15.926Z,91
2022-11-05T06:24:15.044Z,91
2022-11-05T06:25:14.411Z,91
2022-11-05T06:26:14.955Z,91
2022-11-05T06:27:14.234Z,91
2022-11-05T06:28:14.684Z,91
2022-11-05T06:29:15.615Z,91
2022-11-05T06:30:14.553Z,91
2022-11-05T06:31:14.213Z,91
2022-11-05T06:32:14.640Z,91
2022-11-05T06:33:16.031Z,91
2022-11-05T06:34:14.212Z,91
2022-11-05T06:35:14.592Z,91
2022-11-05T06:38:14.657Z,91
2022-11-05T06:39:15.036Z,91
2022-11-05T06:40:14.317Z,91
2022-11-05T06:41:16.873Z,91
2022-11-05T06:42:24.982Z,91
2022-11-05T06:43:15.443Z,91
2022-11-05T06:44:14.583Z,91
2022-11-05T06:45:15.125Z,91
2022-11-05T06:46:14.421Z,91
2022-11-05T06:47:14.845Z,91
2022-11-05T06:50:15.005Z,91
2022-11-05T06:51:14.363Z,91
2022-11-05T06:52:14.723Z,91
2022-11-05T06:55:14.671Z,91
2022-11-05T06:56:14.997Z,91
2022-11-05T06:57:14.457Z,91
2022-11-05T07:00:14.634Z,91
2022-11-05T07:01:15.278Z,91
2022-11-05T07:02:15.436Z,91
2022-11-05T07:03:16.035Z,91
2022-11-05T07:04:14.954Z,91
2022-11-05T07:05:14.292Z,91
2022-11-05T07:06:14.310Z,91
2022-11-05T07:07:14.726Z,91
2022-11-05T07:08:14.874Z,91
2022-11-05T07:09:14.281Z,91
2022-11-05T07:10:14.606Z,91
2022-11-05T07:11:15.044Z,91
2022-11-05T07:12:14.286Z,91
2022-11-05T07:13:16.492Z,91
2022-11-05T07:14:14.906Z,91
2022-11-05T07:15:14.285Z,91
2022-11-05T07:16:14.572Z,91
2022-11-05T07:17:15.053Z,91
2022-11-05T07:18:14.518Z,91
2022-11-05T07:19:14.893Z,91
2022-11-05T07:20:14.213Z,91
2022-11-05T07:21:14.677Z,91
2022-11-05T07:22:14.966Z,91
2022-11-05T07:23:15.612Z,91
2022-11-05T07:24:14.665Z,91
2022-11-05T07:25:15.003Z,91
2022-11-05T07:26:14.412Z,91
2022-11-05T07:27:14.761Z,91
2022-11-05T07:28:15.111Z,91
2022-11-05T07:29:14.509Z,91
2022-11-05T07:30:15.247Z,91
2022-11-05T07:31:14.353Z,91
2022-11-05T07:32:14.753Z,91
2022-11-05T07:33:16.744Z,91
2022-11-05T07:34:14.437Z,90
2022-11-05T07:35:14.724Z,90
2022-11-05T07:36:15.102Z,90
2022-11-05T07:37:14.641Z,90
2022-11-05T07:38:15.157Z,90
2022-11-05T07:39:14.363Z,90
2022-11-05T07:40:14.709Z,90
2022-11-05T07:41:15.140Z,90
2022-11-05T07:42:14.496Z,90
2022-11-05T07:43:16.375Z,90
2022-11-05T07:44:14.658Z,90
2022-11-05T07:45:14.623Z,90
2022-11-05T07:46:20.114Z,90
2022-11-05T07:47:14.168Z,90
2022-11-05T07:48:14.558Z,90
2022-11-05T07:49:14.946Z,90
2022-11-05T07:50:15.109Z,90
2022-11-05T07:51:14.533Z,90
2022-11-05T07:52:14.857Z,90
2022-11-05T07:53:15.645Z,90
2022-11-05T07:54:14.610Z,90
2022-11-05T07:57:14.634Z,90
2022-11-05T07:58:14.963Z,90
2022-11-05T07:59:14.513Z,90
2022-11-05T08:00:14.779Z,90
2022-11-05T08:01:15.821Z,90
2022-11-05T08:02:16.042Z,90
2022-11-05T08:03:17.102Z,90
2022-11-05T08:04:14.316Z,90
2022-11-05T08:05:14.725Z,90
2022-11-05T08:06:15.122Z,90
2022-11-05T08:07:14.695Z,90
2022-11-05T08:08:15.070Z,90
2022-11-05T08:09:14.449Z,90
2022-11-05T08:10:14.855Z,90
2022-11-05T08:11:15.182Z,90
2022-11-05T08:12:14.552Z,90
2022-11-05T08:13:16.202Z,90
2022-11-05T08:14:14.723Z,90
2022-11-05T08:15:15.177Z,90
2022-11-05T08:16:14.557Z,90
2022-11-05T08:17:20.522Z,90
2022-11-05T08:18:15.197Z,90
2022-11-05T08:19:14.498Z,90
2022-11-05T08:20:14.894Z,90
2022-11-05T08:21:14.300Z,90
2022-11-05T08:22:14.760Z,90
2022-11-05T08:23:16.588Z,90
2022-11-05T08:24:14.509Z,90
2022-11-05T08:25:14.892Z,90
2022-11-05T08:26:14.284Z,90
2022-11-05T08:27:14.598Z,90
2022-11-05T08:28:14.895Z,90
2022-11-05T08:29:14.245Z,90
2022-11-05T08:30:14.597Z,90
2022-11-05T08:31:15.045Z,90
2022-11-05T08:32:14.386Z,90
2022-11-05T08:33:16.344Z,90
2022-11-05T08:34:15.196Z,90
2022-11-05T08:35:14.522Z,90
2022-11-05T08:36:14.884Z,90
2022-11-05T08:37:14.200Z,90
2022-11-05T08:38:14.591Z,90
2022-11-05T08:39:21.985Z,90
2022-11-05T08:40:15.149Z,90
2022-11-05T08:41:14.638Z,90
2022-11-05T08:42:15.064Z,90
2022-11-05T08:43:15.505Z,90
2022-11-05T08:44:14.801Z,90
2022-11-05T08:45:14.336Z,90
2022-11-05T08:46:14.747Z,90
2022-11-05T08:47:15.068Z,90
2022-11-05T08:48:14.369Z,90
2022-11-05T08:49:14.776Z,90
2022-11-05T08:50:15.261Z,90
2022-11-05T08:51:14.483Z,90
2022-11-05T08:52:14.905Z,90
2022-11-05T08:53:15.735Z,90
2022-11-05T08:54:14.916Z,90
2022-11-05T08:55:14.199Z,90
2022-11-05T08:56:14.644Z,90
2022-11-05T08:57:15.009Z,90
2022-11-05T08:58:14.364Z,90
2022-11-05T08:59:14.738Z,90
2022-11-05T09:00:15.091Z,90
2022-11-05T09:01:14.831Z,90
2022-11-05T09:02:15.756Z,90
2022-11-05T09:03:16.395Z,90
2022-11-05T09:04:14.787Z,90
2022-11-05T09:05:14.208Z,90
2022-11-05T09:08:14.330Z,90
2022-11-05T09:09:14.755Z,90
2022-11-05T09:10:14.186Z,90
2022-11-05T09:11:15.003Z,90
2022-11-05T09:12:19.335Z,90
2022-11-05T09:13:24.245Z,90
2022-11-05T09:14:14.313Z,90
2022-11-05T09:15:14.810Z,90
2022-11-05T09:16:15.123Z,90
2022-11-05T09:17:14.582Z,90
2022-11-05T09:18:14.897Z,90
2022-11-05T09:19:14.274Z,90
2022-11-05T09:20:14.672Z,90
2022-11-05T09:21:15.012Z,90
2022-11-05T09:22:14.481Z,90
2022-11-05T09:23:15.999Z,90
2022-11-05T09:24:15.261Z,90
2022-11-05T09:25:14.671Z,90
2022-11-05T09:26:15.340Z,90
2022-11-05T09:27:14.737Z,90
2022-11-05T09:30:15.156Z,90
2022-11-05T09:31:15.210Z,90
2022-11-05T09:32:14.418Z,90
2022-11-05T09:33:15.791Z,89
2022-11-05T09:34:14.924Z,89
2022-11-05T09:35:14.321Z,89
2022-11-05T09:36:14.789Z,89
2022-11-05T09:37:15.172Z,89
2022-11-05T09:38:14.758Z,89
2022-11-05T09:39:15.000Z,89
2022-11-05T09:40:14.455Z,89
2022-11-05T09:41:14.774Z,89
2022-11-05T09:42:15.106Z,89
2022-11-05T09:43:15.536Z,89
2022-11-05T09:44:14.798Z,89
2022-11-05T09:45:15.244Z,89
2022-11-05T09:46:14.680Z,89
2022-11-05T09:47:14.997Z,89
2022-11-05T09:48:14.385Z,89
2022-11-05T09:49:14.884Z,89
2022-11-05T09:50:15.220Z,89
2022-11-05T09:51:18.056Z,89
2022-11-05T09:52:14.016Z,89
2022-11-05T09:53:15.446Z,89
2022-11-05T09:54:14.882Z,89
2022-11-05T09:57:15.589Z,89
2022-11-05T09:58:14.497Z,89
2022-11-05T09:59:15.054Z,89
2022-11-05T10:00:14.524Z,89
2022-11-05T10:01:15.315Z,88
2022-11-05T10:02:15.156Z,88
2022-11-05T10:03:15.356Z,88
2022-11-05T10:04:14.736Z,88
2022-11-05T10:05:16.843Z,88
2022-11-05T10:06:14.560Z,88
2022-11-05T10:07:15.011Z,88
2022-11-05T10:08:14.324Z,88
2022-11-05T10:09:14.722Z,88
2022-11-05T10:10:15.195Z,88
2022-11-05T10:11:14.422Z,88
2022-11-05T10:12:14.972Z,88
2022-11-05T10:13:16.211Z,88
2022-11-05T10:14:14.512Z,88
2022-11-05T10:15:14.964Z,88
2022-11-05T10:16:14.421Z,88
2022-11-05T10:17:14.747Z,88
2022-11-05T10:18:15.324Z,88
2022-11-05T10:19:14.535Z,88
2022-11-05T10:20:14.962Z,88
2022-11-05T10:21:14.247Z,88
2022-11-05T10:22:14.636Z,88
2022-11-05T10:23:16.160Z,88
2022-11-05T10:24:14.266Z,88
2022-11-05T10:25:14.636Z,88
2022-11-05T10:28:14.761Z,88
2022-11-05T10:29:15.184Z,88
2022-11-05T10:30:14.799Z,88
2022-11-05T10:31:15.057Z,88
2022-11-05T10:32:14.345Z,88
2022-11-05T10:33:15.877Z,88
2022-11-05T10:34:15.038Z,88
2022-11-05T10:35:14.395Z,87
2022-11-05T10:36:14.727Z,87
2022-11-05T10:37:15.132Z,87
2022-11-05T10:38:14.512Z,87
2022-11-05T10:39:14.936Z,87
2022-11-05T10:42:15.014Z,87
2022-11-05T10:43:15.276Z,87
2022-11-05T10:44:21.041Z,87
2022-11-05T10:45:14.968Z,87
2022-11-05T10:46:14.284Z,87
2022-11-05T10:47:14.668Z,87
2022-11-05T10:48:15.076Z,87
2022-11-05T10:51:15.103Z,87
2022-11-05T10:52:14.421Z,87
2022-11-05T10:53:15.968Z,87
2022-11-05T10:54:15.141Z,87
2022-11-05T10:55:14.467Z,87
2022-11-05T10:56:14.826Z,87
2022-11-05T10:57:15.255Z,87
2022-11-05T10:58:14.627Z,87
2022-11-05T10:59:18.509Z,87
2022-11-05T11:00:14.432Z,87
2022-11-05T11:01:15.122Z,87
2022-11-05T11:02:15.508Z,87
2022-11-05T11:03:15.557Z,87
2022-11-05T11:04:14.797Z,87
2022-11-05T11:05:15.161Z,87
2022-11-05T11:06:14.591Z,87
2022-11-05T11:07:14.946Z,87
2022-11-05T11:08:14.282Z,87
2022-11-05T11:09:14.640Z,87
2022-11-05T11:10:15.068Z,87
2022-11-05T11:11:14.364Z,87
2022-11-05T11:12:14.797Z,87
2022-11-05T11:13:16.084Z,87
2022-11-05T11:14:15.145Z,87
2022-11-05T11:15:15.118Z,87
2022-11-05T11:16:14.638Z,87
2022-11-05T11:17:14.382Z,87
2022-11-05T11:18:14.783Z,87
2022-11-05T11:19:15.174Z,87
2022-11-05T11:20:14.630Z,86
2022-11-05T11:23:16.209Z,87
2022-11-05T11:24:15.099Z,87
2022-11-05T11:25:14.708Z,86
2022-11-05T11:26:15.096Z,86
2022-11-05T11:27:14.348Z,87
2022-11-05T11:28:14.659Z,86
2022-11-05T11:29:15.047Z,86
2022-11-05T11:30:14.574Z,86
2022-11-05T11:31:14.949Z,86
2022-11-05T11:32:14.333Z,86
2022-11-05T11:35:14.465Z,86
2022-11-05T11:36:14.810Z,86
2022-11-05T11:37:21.784Z,86
2022-11-05T11:38:14.477Z,86
2022-11-05T11:39:14.882Z,86
2022-11-05T11:40:16.573Z,86
2022-11-05T11:41:14.572Z,86
2022-11-05T11:42:14.943Z,86
2022-11-05T11:43:15.054Z,86
2022-11-05T11:44:14.699Z,86
2022-11-05T11:45:15.141Z,86
2022-11-05T11:46:21.098Z,86
2022-11-05T11:47:14.906Z,86
2022-11-05T11:48:14.261Z,86
2022-11-05T11:51:14.684Z,85
2022-11-05T11:52:15.071Z,85
2022-11-05T11:53:15.509Z,85
2022-11-05T11:54:14.823Z,86
2022-11-05T11:55:15.169Z,86
2022-11-05T11:56:14.443Z,86
2022-11-05T11:57:21.304Z,86
2022-11-05T11:58:15.026Z,86
2022-11-05T11:59:14.668Z,85
2022-11-05T12:00:16.039Z,85
2022-11-05T12:01:15.194Z,85
2022-11-05T12:04:14.301Z,84
2022-11-05T12:05:14.598Z,84
2022-11-05T12:06:15.047Z,84
2022-11-05T12:07:14.764Z,84
2022-11-05T12:08:15.051Z,84
2022-11-05T12:09:14.433Z,84
2022-11-05T12:10:14.851Z,84
2022-11-05T12:11:15.161Z,84
2022-11-05T12:12:14.594Z,84
2022-11-05T12:13:16.125Z,84
2022-11-05T12:14:14.274Z,84
2022-11-05T12:15:14.820Z,84
2022-11-05T12:16:15.193Z,84
2022-11-05T12:17:14.552Z,84
2022-11-05T12:20:14.769Z,84
2022-11-05T12:21:15.343Z,84
2022-11-05T12:22:14.521Z,84
2022-11-05T12:23:16.187Z,84
2022-11-05T12:24:15.215Z,84
2022-11-05T12:25:14.612Z,83
2022-11-05T12:26:15.046Z,83
2022-11-05T12:27:14.424Z,83
2022-11-05T12:28:14.717Z,83
2022-11-05T12:29:37.960Z,83
2022-11-05T12:30:14.512Z,83
2022-11-05T12:31:14.781Z,83
2022-11-05T12:32:15.211Z,83
2022-11-05T12:33:15.888Z,83
2022-11-05T12:34:14.845Z,83
2022-11-05T12:35:14.293Z,82
2022-11-05T12:36:14.741Z,82
2022-11-05T12:37:15.038Z,82
2022-11-05T12:38:14.540Z,82
2022-11-05T12:39:15.248Z,83
2022-11-05T12:40:14.714Z,82
2022-11-05T12:41:14.365Z,82
2022-11-05T12:42:14.726Z,82
2022-11-05T12:43:19.499Z,82
2022-11-05T12:44:14.581Z,82
2022-11-05T12:45:15.021Z,82
2022-11-05T12:46:14.400Z,82
2022-11-05T12:49:14.566Z,82
2022-11-05T12:50:15.129Z,82
2022-11-05T12:51:14.426Z,82
2022-11-05T12:52:14.839Z,82
2022-11-05T12:53:15.618Z,82
2022-11-05T12:54:15.000Z,82
2022-11-05T12:55:14.365Z,82
2022-11-05T12:56:14.922Z,81
2022-11-05T12:57:15.160Z,81
2022-11-05T12:58:14.520Z,81
2022-11-05T12:59:14.915Z,81
2022-11-05T13:00:15.333Z,81
2022-11-05T13:01:15.041Z,81
2022-11-05T13:02:15.594Z,81
2022-11-05T13:03:15.446Z,81
2022-11-05T13:04:14.979Z,80
2022-11-05T13:05:14.460Z,80
2022-11-05T13:06:15.072Z,80
2022-11-05T13:07:14.342Z,80
2022-11-05T13:08:14.807Z,80
2022-11-05T13:09:15.101Z,80
2022-11-05T13:10:14.564Z,80
2022-11-05T13:13:15.560Z,80
2022-11-05T13:14:14.950Z,80
2022-11-05T13:15:14.493Z,80
2022-11-05T13:16:14.916Z,80
2022-11-05T13:17:15.236Z,80
2022-11-05T13:18:14.580Z,80
2022-11-05T13:19:14.982Z,80
2022-11-05T13:20:21.674Z,80
2022-11-05T13:21:15.032Z,80
2022-11-05T13:22:14.478Z,80
2022-11-05T13:23:16.063Z,80
2022-11-05T13:24:15.111Z,80
2022-11-05T13:25:14.554Z,80
2022-11-05T13:26:21.580Z,80
2022-11-05T13:27:14.420Z,80
2022-11-05T13:28:14.890Z,80
2022-11-05T13:29:14.387Z,80
2022-11-05T13:30:14.625Z,79
2022-11-05T13:31:15.058Z,79
2022-11-05T13:32:14.386Z,79
2022-11-05T13:33:15.857Z,79
2022-11-05T13:36:14.946Z,79
2022-11-05T13:37:15.175Z,79
2022-11-05T13:38:14.498Z,79
2022-11-05T13:39:14.720Z,79
2022-11-05T13:40:14.680Z,79
2022-11-05T13:41:15.116Z,79
2022-11-05T13:42:14.312Z,79
2022-11-05T13:43:15.787Z,79
2022-11-05T13:44:14.948Z,79
2022-11-05T13:45:14.805Z,79
2022-11-05T13:46:15.235Z,79
2022-11-05T13:47:14.595Z,79
2022-11-05T13:48:14.943Z,79
2022-11-05T13:49:14.282Z,79
2022-11-05T13:50:14.659Z,79
2022-11-05T13:51:14.977Z,79
2022-11-05T13:52:14.368Z,79
2022-11-05T13:53:15.559Z,79
2022-11-05T13:54:15.128Z,79
2022-11-05T13:55:14.312Z,79
2022-11-05T13:56:14.596Z,80
2022-11-05T13:57:14.982Z,80
2022-11-05T13:58:14.356Z,79
2022-11-05T13:59:14.714Z,79
2022-11-05T14:00:15.122Z,79
2022-11-05T14:01:14.759Z,79
2022-11-05T14:02:15.346Z,79
2022-11-05T14:03:16.248Z,79
2022-11-05T14:04:14.399Z,79
2022-11-05T14:05:14.687Z,79
2022-11-05T14:06:15.135Z,79
2022-11-05T14:07:14.429Z,79
2022-11-05T14:08:14.745Z,79
2022-11-05T14:09:15.164Z,79
2022-11-05T14:10:14.535Z,79
2022-11-05T14:11:14.455Z,80
2022-11-05T14:12:14.503Z,80
2022-11-05T14:15:14.712Z,80
2022-11-05T14:16:15.127Z,80
2022-11-05T14:17:14.424Z,80
2022-11-05T14:18:14.828Z,80
2022-11-05T14:19:15.201Z,80
2022-11-05T14:20:14.693Z,80
2022-11-05T14:21:15.001Z,80
2022-11-05T14:24:15.137Z,80
2022-11-05T14:25:14.410Z,80
2022-11-05T14:26:14.773Z,81
2022-11-05T14:27:15.136Z,81
2022-11-05T14:28:14.516Z,81
2022-11-05T14:29:14.847Z,81
2022-11-05T14:30:15.333Z,81
2022-11-05T14:31:14.582Z,81
2022-11-05T14:32:16.243Z,81
2022-11-05T14:33:15.468Z,81
2022-11-05T14:34:14.656Z,81
2022-11-05T14:37:14.808Z,81
2022-11-05T14:38:14.628Z,81
2022-11-05T14:39:15.032Z,81
2022-11-05T14:42:15.437Z,81
2022-11-05T14:43:15.377Z,81
2022-11-05T14:44:14.807Z,81
2022-11-05T14:45:15.270Z,81
2022-11-05T14:46:14.459Z,81
2022-11-05T14:47:14.744Z,80
2022-11-05T14:48:15.090Z,80
2022-11-05T14:49:16.062Z,81
2022-11-05T14:50:14.991Z,81
2022-11-05T14:51:14.331Z,81
2022-11-05T14:52:14.835Z,81
2022-11-05T14:53:16.528Z,81
2022-11-05T14:54:14.619Z,81
2022-11-05T14:55:15.110Z,81
2022-11-05T14:56:14.509Z,81
2022-11-05T14:57:14.769Z,81
2022-11-05T14:58:15.303Z,81
2022-11-05T14:59:14.502Z,81
2022-11-05T15:02:15.463Z,81
2022-11-05T15:03:16.152Z,81
2022-11-05T15:04:14.764Z,81
2022-11-05T15:05:14.845Z,81
2022-11-05T15:06:15.167Z,81
2022-11-05T15:07:14.528Z,81
2022-11-05T15:10:17.069Z,80
2022-11-05T15:11:14.973Z,80
2022-11-05T15:12:14.445Z,80
2022-11-05T15:13:15.857Z,80
2022-11-05T15:14:15.202Z,80
2022-11-05T15:15:21.661Z,80
2022-11-05T15:16:15.081Z,80
2022-11-05T15:17:14.338Z,80
2022-11-05T15:18:14.623Z,80
2022-11-05T15:19:15.043Z,80
2022-11-05T15:22:15.177Z,81
2022-11-05T15:23:16.067Z,81
2022-11-05T15:24:15.118Z,81
2022-11-05T15:25:14.555Z,81
2022-11-05T15:26:14.815Z,81
2022-11-05T15:27:15.078Z,81
2022-11-05T15:28:14.526Z,81
2022-11-05T15:29:14.836Z,81
2022-11-05T15:30:15.341Z,81
2022-11-05T15:31:14.587Z,81
2022-11-05T15:33:14.676Z,81
2022-11-05T15:34:14.603Z,81
2022-11-05T15:35:14.942Z,81
2022-11-05T15:36:14.308Z,81
2022-11-05T15:37:14.745Z,81
2022-11-05T15:38:14.281Z,81
2022-11-05T15:39:30.926Z,81
2022-11-05T15:40:14.837Z,81
2022-11-05T15:41:14.356Z,81
2022-11-05T15:42:14.779Z,81
2022-11-05T15:43:16.755Z,81
2022-11-05T15:46:14.315Z,82
2022-11-05T15:47:14.853Z,82
2022-11-05T15:48:14.893Z,82
2022-11-05T15:49:15.133Z,82
2022-11-05T15:50:20.465Z,82